Wattisham, United Kingdom
Current Conditions -  °F | °C
As of 7:21 PM on Thursday 27 Nov 2014 (Local Time) from EGUW Reporting Station
Haze Haze  
Wind Chill: 50°   Ceiling: 1000
Heat Index: 50°   Visibility: 4mi
Dew Point: 50°   Wind: 6mph
Humidity: 100%   Direction: 120°ESE
Pressure: 29.62"   Gusts: NA
Location:  52.13°N, 0.94°E
Report Text: EGUW 271921Z 12005KT 6000 BR SCT005 BKN010 OVC025 10/10 Q1003 YLO1 BECMG 4000 BKN004 YLO2
Loading
Personal Weather Stations






























Interactive Weather Map New forecast layout! Learn more

10-Day Weather Forecast

Advertisements
Track Severe Weather on mobile